ΕΜΥ, Εθνική Μετεωρολογική Υπηρεσία - Δελτία Καιρού, Προγνώσεις

ΑΕΡΟΝΑΥΤΙΛΙΑ

GREEK AIRPORTS CODES

TAF LGML 260700Z 2609/2618 04012KT 9999 FEW020=

EUROPEAN AIRPORTS CODES

LFPO 260730Z 18008KT 150V210 9999 FEW013 SCT260 10/07 Q1013NOSIG=